sensor_id;sensor_type;location;lat;lon;timestamp;P1;durP1;ratioP1;P2;durP2;ratioP2
757;SDS011;363;48.764;9.172;2024-01-30T00:01:12;6.60;;;5.93;;
757;SDS011;363;48.764;9.172;2024-01-30T00:03:38;7.67;;;6.00;;
757;SDS011;363;48.764;9.172;2024-01-30T00:06:03;7.97;;;6.07;;
757;SDS011;363;48.764;9.172;2024-01-30T00:08:29;6.93;;;5.73;;
757;SDS011;363;48.764;9.172;2024-01-30T00:10:54;7.70;;;5.67;;
757;SDS011;363;48.764;9.172;2024-01-30T00:13:20;6.93;;;5.30;;
757;SDS011;363;48.764;9.172;2024-01-30T00:15:46;8.47;;;6.20;;
757;SDS011;363;48.764;9.172;2024-01-30T00:18:11;8.13;;;6.37;;
757;SDS011;363;48.764;9.172;2024-01-30T00:20:37;7.00;;;5.90;;
757;SDS011;363;48.764;9.172;2024-01-30T00:23:03;7.53;;;5.43;;
757;SDS011;363;48.764;9.172;2024-01-30T00:25:29;6.20;;;5.32;;
757;SDS011;363;48.764;9.172;2024-01-30T00:27:55;7.27;;;6.00;;
757;SDS011;363;48.764;9.172;2024-01-30T00:30:20;7.67;;;6.10;;
757;SDS011;363;48.764;9.172;2024-01-30T00:32:46;8.77;;;6.03;;
757;SDS011;363;48.764;9.172;2024-01-30T00:35:12;5.87;;;5.33;;
757;SDS011;363;48.764;9.172;2024-01-30T00:37:37;7.27;;;5.23;;
757;SDS011;363;48.764;9.172;2024-01-30T00:40:03;6.60;;;5.90;;
757;SDS011;363;48.764;9.172;2024-01-30T00:42:31;5.60;;;5.00;;
757;SDS011;363;48.764;9.172;2024-01-30T00:44:57;7.13;;;6.20;;
757;SDS011;363;48.764;9.172;2024-01-30T00:47:22;6.13;;;5.53;;
757;SDS011;363;48.764;9.172;2024-01-30T00:49:48;6.70;;;5.10;;
757;SDS011;363;48.764;9.172;2024-01-30T00:52:14;6.85;;;6.13;;
757;SDS011;363;48.764;9.172;2024-01-30T00:54:40;12.70;;;5.93;;
757;SDS011;363;48.764;9.172;2024-01-30T00:57:06;5.83;;;5.23;;
757;SDS011;363;48.764;9.172;2024-01-30T00:59:32;6.28;;;5.30;;
757;SDS011;363;48.764;9.172;2024-01-30T01:01:57;7.63;;;6.00;;
757;SDS011;363;48.764;9.172;2024-01-30T01:04:23;6.37;;;5.50;;
757;SDS011;363;48.764;9.172;2024-01-30T01:06:49;7.50;;;5.87;;
757;SDS011;363;48.764;9.172;2024-01-30T01:09:15;6.93;;;5.55;;
757;SDS011;363;48.764;9.172;2024-01-30T01:11:40;6.90;;;6.00;;
757;SDS011;363;48.764;9.172;2024-01-30T01:14:05;8.03;;;5.60;;
757;SDS011;363;48.764;9.172;2024-01-30T01:16:31;6.20;;;5.60;;
757;SDS011;363;48.764;9.172;2024-01-30T01:18:57;7.17;;;6.40;;
757;SDS011;363;48.764;9.172;2024-01-30T01:21:22;6.20;;;5.60;;
757;SDS011;363;48.764;9.172;2024-01-30T01:23:48;5.80;;;5.03;;
757;SDS011;363;48.764;9.172;2024-01-30T01:26:13;6.10;;;5.60;;
757;SDS011;363;48.764;9.172;2024-01-30T01:28:40;6.40;;;5.50;;
757;SDS011;363;48.764;9.172;2024-01-30T01:31:06;7.97;;;6.53;;
757;SDS011;363;48.764;9.172;2024-01-30T01:33:32;6.70;;;6.00;;
757;SDS011;363;48.764;9.172;2024-01-30T01:35:58;6.47;;;5.70;;
757;SDS011;363;48.764;9.172;2024-01-30T01:38:24;7.10;;;6.40;;
757;SDS011;363;48.764;9.172;2024-01-30T01:40:50;8.40;;;6.33;;
757;SDS011;363;48.764;9.172;2024-01-30T01:43:16;8.25;;;6.07;;
757;SDS011;363;48.764;9.172;2024-01-30T01:45:42;5.50;;;5.00;;
757;SDS011;363;48.764;9.172;2024-01-30T01:48:07;7.80;;;6.60;;
757;SDS011;363;48.764;9.172;2024-01-30T01:50:34;6.28;;;5.47;;
757;SDS011;363;48.764;9.172;2024-01-30T01:53:00;5.30;;;4.80;;
757;SDS011;363;48.764;9.172;2024-01-30T01:55:27;6.55;;;5.47;;
757;SDS011;363;48.764;9.172;2024-01-30T01:57:55;7.82;;;5.85;;
757;SDS011;363;48.764;9.172;2024-01-30T02:00:21;6.30;;;5.47;;
757;SDS011;363;48.764;9.172;2024-01-30T02:02:46;7.80;;;5.73;;
757;SDS011;363;48.764;9.172;2024-01-30T02:05:12;7.03;;;5.53;;
757;SDS011;363;48.764;9.172;2024-01-30T02:07:38;6.83;;;5.43;;
757;SDS011;363;48.764;9.172;2024-01-30T02:10:03;7.33;;;5.60;;
757;SDS011;363;48.764;9.172;2024-01-30T02:12:29;6.17;;;5.57;;
757;SDS011;363;48.764;9.172;2024-01-30T02:14:55;5.80;;;5.30;;
757;SDS011;363;48.764;9.172;2024-01-30T02:17:20;6.43;;;5.83;;
757;SDS011;363;48.764;9.172;2024-01-30T02:19:48;5.75;;;5.00;;
757;SDS011;363;48.764;9.172;2024-01-30T02:22:13;6.43;;;5.83;;
757;SDS011;363;48.764;9.172;2024-01-30T02:24:39;6.82;;;5.32;;
757;SDS011;363;48.764;9.172;2024-01-30T02:27:05;7.47;;;6.33;;
757;SDS011;363;48.764;9.172;2024-01-30T02:29:31;6.40;;;5.80;;
757;SDS011;363;48.764;9.172;2024-01-30T02:31:56;5.97;;;5.37;;
757;SDS011;363;48.764;9.172;2024-01-30T02:34:22;7.93;;;5.80;;
757;SDS011;363;48.764;9.172;2024-01-30T02:36:48;6.95;;;5.32;;
757;SDS011;363;48.764;9.172;2024-01-30T02:39:14;7.40;;;5.03;;
757;SDS011;363;48.764;9.172;2024-01-30T02:41:39;5.33;;;4.83;;
757;SDS011;363;48.764;9.172;2024-01-30T02:44:05;6.13;;;5.53;;
757;SDS011;363;48.764;9.172;2024-01-30T02:46:30;5.90;;;5.30;;
757;SDS011;363;48.764;9.172;2024-01-30T02:48:56;5.87;;;5.37;;
757;SDS011;363;48.764;9.172;2024-01-30T02:51:22;6.33;;;5.60;;
757;SDS011;363;48.764;9.172;2024-01-30T02:53:47;6.47;;;5.10;;
757;SDS011;363;48.764;9.172;2024-01-30T02:56:13;6.10;;;5.47;;
757;SDS011;363;48.764;9.172;2024-01-30T02:58:39;5.93;;;5.33;;
757;SDS011;363;48.764;9.172;2024-01-30T03:01:05;6.72;;;6.05;;
757;SDS011;363;48.764;9.172;2024-01-30T03:03:31;6.20;;;5.53;;
757;SDS011;363;48.764;9.172;2024-01-30T03:05:59;5.80;;;4.90;;
757;SDS011;363;48.764;9.172;2024-01-30T03:08:24;6.10;;;5.50;;
757;SDS011;363;48.764;9.172;2024-01-30T03:10:50;6.33;;;5.73;;
757;SDS011;363;48.764;9.172;2024-01-30T03:13:15;5.77;;;5.17;;
757;SDS011;363;48.764;9.172;2024-01-30T03:15:41;6.03;;;5.43;;
757;SDS011;363;48.764;9.172;2024-01-30T03:18:06;6.00;;;5.40;;
757;SDS011;363;48.764;9.172;2024-01-30T03:20:32;5.20;;;4.73;;
757;SDS011;363;48.764;9.172;2024-01-30T03:22:59;6.10;;;5.50;;
757;SDS011;363;48.764;9.172;2024-01-30T03:25:25;7.30;;;5.47;;
757;SDS011;363;48.764;9.172;2024-01-30T03:27:50;8.83;;;5.70;;
757;SDS011;363;48.764;9.172;2024-01-30T03:30:16;5.47;;;4.97;;
757;SDS011;363;48.764;9.172;2024-01-30T03:32:42;7.73;;;5.50;;
757;SDS011;363;48.764;9.172;2024-01-30T03:35:08;5.70;;;5.17;;
757;SDS011;363;48.764;9.172;2024-01-30T03:37:33;6.37;;;5.53;;
757;SDS011;363;48.764;9.172;2024-01-30T03:39:59;6.90;;;5.70;;
757;SDS011;363;48.764;9.172;2024-01-30T03:42:24;6.90;;;5.47;;
757;SDS011;363;48.764;9.172;2024-01-30T03:44:50;6.50;;;5.90;;
757;SDS011;363;48.764;9.172;2024-01-30T03:47:19;6.45;;;5.70;;
757;SDS011;363;48.764;9.172;2024-01-30T03:49:45;7.60;;;5.90;;
757;SDS011;363;48.764;9.172;2024-01-30T03:52:11;7.63;;;6.17;;
757;SDS011;363;48.764;9.172;2024-01-30T03:54:37;5.47;;;4.97;;
757;SDS011;363;48.764;9.172;2024-01-30T03:57:02;5.67;;;5.17;;
757;SDS011;363;48.764;9.172;2024-01-30T03:59:28;6.63;;;5.93;;
757;SDS011;363;48.764;9.172;2024-01-30T04:01:54;6.20;;;5.60;;
757;SDS011;363;48.764;9.172;2024-01-30T04:04:19;6.80;;;6.10;;
757;SDS011;363;48.764;9.172;2024-01-30T04:06:45;6.03;;;5.43;;
757;SDS011;363;48.764;9.172;2024-01-30T04:09:11;7.67;;;5.67;;
757;SDS011;363;48.764;9.172;2024-01-30T04:11:38;7.32;;;5.65;;
757;SDS011;363;48.764;9.172;2024-01-30T04:14:04;6.32;;;5.72;;
757;SDS011;363;48.764;9.172;2024-01-30T04:16:30;7.57;;;5.73;;
757;SDS011;363;48.764;9.172;2024-01-30T04:18:55;7.43;;;6.63;;
757;SDS011;363;48.764;9.172;2024-01-30T04:21:21;6.67;;;6.07;;
757;SDS011;363;48.764;9.172;2024-01-30T04:23:47;8.07;;;6.00;;
757;SDS011;363;48.764;9.172;2024-01-30T04:26:13;7.72;;;6.07;;
757;SDS011;363;48.764;9.172;2024-01-30T04:28:41;7.13;;;6.30;;
757;SDS011;363;48.764;9.172;2024-01-30T04:31:07;9.13;;;6.70;;
757;SDS011;363;48.764;9.172;2024-01-30T04:33:32;7.00;;;5.83;;
757;SDS011;363;48.764;9.172;2024-01-30T04:35:58;7.30;;;6.20;;
757;SDS011;363;48.764;9.172;2024-01-30T04:38:23;7.10;;;6.40;;
757;SDS011;363;48.764;9.172;2024-01-30T04:40:49;7.73;;;7.00;;
757;SDS011;363;48.764;9.172;2024-01-30T04:43:14;7.90;;;6.33;;
757;SDS011;363;48.764;9.172;2024-01-30T04:45:40;8.52;;;6.45;;
757;SDS011;363;48.764;9.172;2024-01-30T04:48:06;7.40;;;6.40;;
757;SDS011;363;48.764;9.172;2024-01-30T04:50:32;7.30;;;6.60;;
757;SDS011;363;48.764;9.172;2024-01-30T04:52:57;8.67;;;6.67;;
757;SDS011;363;48.764;9.172;2024-01-30T04:55:23;7.67;;;6.87;;
757;SDS011;363;48.764;9.172;2024-01-30T04:57:49;11.93;;;7.30;;
757;SDS011;363;48.764;9.172;2024-01-30T05:00:14;7.83;;;6.83;;
757;SDS011;363;48.764;9.172;2024-01-30T05:02:40;7.43;;;6.68;;
757;SDS011;363;48.764;9.172;2024-01-30T05:05:06;8.80;;;7.60;;
757;SDS011;363;48.764;9.172;2024-01-30T05:07:32;9.85;;;6.45;;
757;SDS011;363;48.764;9.172;2024-01-30T05:09:59;8.60;;;7.10;;
757;SDS011;363;48.764;9.172;2024-01-30T05:12:24;8.13;;;7.10;;
757;SDS011;363;48.764;9.172;2024-01-30T05:14:50;7.37;;;6.30;;
757;SDS011;363;48.764;9.172;2024-01-30T05:17:16;7.43;;;6.73;;
757;SDS011;363;48.764;9.172;2024-01-30T05:19:42;10.10;;;6.73;;
757;SDS011;363;48.764;9.172;2024-01-30T05:22:08;8.07;;;6.75;;
757;SDS011;363;48.764;9.172;2024-01-30T05:24:35;7.10;;;6.30;;
757;SDS011;363;48.764;9.172;2024-01-30T05:27:01;8.35;;;6.45;;
757;SDS011;363;48.764;9.172;2024-01-30T05:29:27;9.43;;;7.13;;
757;SDS011;363;48.764;9.172;2024-01-30T05:31:53;7.93;;;7.13;;
757;SDS011;363;48.764;9.172;2024-01-30T05:34:18;8.60;;;6.50;;
757;SDS011;363;48.764;9.172;2024-01-30T05:36:44;8.73;;;6.40;;
757;SDS011;363;48.764;9.172;2024-01-30T05:39:09;7.47;;;6.70;;
757;SDS011;363;48.764;9.172;2024-01-30T05:41:35;8.70;;;7.53;;
757;SDS011;363;48.764;9.172;2024-01-30T05:44:01;9.93;;;7.67;;
757;SDS011;363;48.764;9.172;2024-01-30T05:46:27;7.23;;;6.53;;
757;SDS011;363;48.764;9.172;2024-01-30T05:48:52;9.33;;;6.90;;
757;SDS011;363;48.764;9.172;2024-01-30T05:51:18;7.20;;;6.23;;
757;SDS011;363;48.764;9.172;2024-01-30T05:53:43;7.33;;;6.40;;
757;SDS011;363;48.764;9.172;2024-01-30T05:56:09;9.50;;;7.30;;
757;SDS011;363;48.764;9.172;2024-01-30T05:58:34;10.83;;;7.63;;
757;SDS011;363;48.764;9.172;2024-01-30T06:01:00;8.10;;;7.30;;
757;SDS011;363;48.764;9.172;2024-01-30T06:03:25;8.43;;;7.60;;
757;SDS011;363;48.764;9.172;2024-01-30T06:05:51;7.17;;;6.47;;
757;SDS011;363;48.764;9.172;2024-01-30T06:08:17;12.60;;;7.80;;
757;SDS011;363;48.764;9.172;2024-01-30T06:10:42;9.75;;;6.95;;
757;SDS011;363;48.764;9.172;2024-01-30T06:13:08;10.57;;;7.70;;
757;SDS011;363;48.764;9.172;2024-01-30T06:15:33;10.03;;;7.10;;
757;SDS011;363;48.764;9.172;2024-01-30T06:17:59;11.27;;;9.03;;
757;SDS011;363;48.764;9.172;2024-01-30T06:20:25;9.05;;;7.57;;
757;SDS011;363;48.764;9.172;2024-01-30T06:22:51;8.23;;;7.40;;
757;SDS011;363;48.764;9.172;2024-01-30T06:25:16;8.83;;;7.63;;
757;SDS011;363;48.764;9.172;2024-01-30T06:27:43;9.07;;;7.97;;
757;SDS011;363;48.764;9.172;2024-01-30T06:30:09;9.70;;;8.00;;
757;SDS011;363;48.764;9.172;2024-01-30T06:32:35;9.77;;;8.65;;
757;SDS011;363;48.764;9.172;2024-01-30T06:35:01;8.53;;;7.63;;
757;SDS011;363;48.764;9.172;2024-01-30T06:37:27;8.10;;;7.22;;
757;SDS011;363;48.764;9.172;2024-01-30T06:39:53;11.50;;;7.47;;
757;SDS011;363;48.764;9.172;2024-01-30T06:42:18;9.77;;;8.30;;
757;SDS011;363;48.764;9.172;2024-01-30T06:44:44;8.17;;;7.37;;
757;SDS011;363;48.764;9.172;2024-01-30T06:47:10;9.77;;;7.70;;
757;SDS011;363;48.764;9.172;2024-01-30T06:49:35;7.93;;;6.70;;
757;SDS011;363;48.764;9.172;2024-01-30T06:52:04;13.55;;;10.93;;
757;SDS011;363;48.764;9.172;2024-01-30T06:54:31;8.30;;;7.40;;
757;SDS011;363;48.764;9.172;2024-01-30T06:56:57;8.35;;;7.47;;
757;SDS011;363;48.764;9.172;2024-01-30T06:59:23;7.87;;;7.07;;
757;SDS011;363;48.764;9.172;2024-01-30T07:01:49;9.40;;;7.10;;
757;SDS011;363;48.764;9.172;2024-01-30T07:04:14;8.77;;;7.87;;
757;SDS011;363;48.764;9.172;2024-01-30T07:06:40;10.70;;;7.82;;
757;SDS011;363;48.764;9.172;2024-01-30T07:09:06;11.50;;;9.30;;
757;SDS011;363;48.764;9.172;2024-01-30T07:11:32;8.83;;;7.80;;
757;SDS011;363;48.764;9.172;2024-01-30T07:13:57;10.03;;;7.50;;
757;SDS011;363;48.764;9.172;2024-01-30T07:16:23;8.70;;;7.83;;
757;SDS011;363;48.764;9.172;2024-01-30T07:18:49;9.20;;;7.10;;
757;SDS011;363;48.764;9.172;2024-01-30T07:21:15;9.77;;;8.77;;
757;SDS011;363;48.764;9.172;2024-01-30T07:23:40;15.93;;;10.63;;
757;SDS011;363;48.764;9.172;2024-01-30T07:26:07;8.85;;;7.30;;
757;SDS011;363;48.764;9.172;2024-01-30T07:28:33;7.30;;;6.60;;
757;SDS011;363;48.764;9.172;2024-01-30T07:30:59;10.90;;;8.57;;
757;SDS011;363;48.764;9.172;2024-01-30T07:33:25;9.85;;;8.40;;
757;SDS011;363;48.764;9.172;2024-01-30T07:35:52;9.17;;;7.97;;
757;SDS011;363;48.764;9.172;2024-01-30T07:38:18;8.65;;;7.75;;
757;SDS011;363;48.764;9.172;2024-01-30T07:40:43;7.53;;;6.93;;
757;SDS011;363;48.764;9.172;2024-01-30T07:43:09;10.43;;;8.30;;
757;SDS011;363;48.764;9.172;2024-01-30T07:45:35;8.40;;;7.60;;
757;SDS011;363;48.764;9.172;2024-01-30T07:48:02;9.43;;;7.93;;
757;SDS011;363;48.764;9.172;2024-01-30T07:50:28;9.82;;;7.43;;
757;SDS011;363;48.764;9.172;2024-01-30T07:52:53;8.73;;;7.83;;
757;SDS011;363;48.764;9.172;2024-01-30T07:55:20;8.73;;;7.20;;
757;SDS011;363;48.764;9.172;2024-01-30T07:57:52;14.18;;;8.20;;
757;SDS011;363;48.764;9.172;2024-01-30T08:00:18;9.80;;;8.00;;
757;SDS011;363;48.764;9.172;2024-01-30T08:02:46;9.20;;;8.18;;
757;SDS011;363;48.764;9.172;2024-01-30T08:05:11;10.93;;;7.90;;
757;SDS011;363;48.764;9.172;2024-01-30T08:07:53;9.38;;;7.75;;
757;SDS011;363;48.764;9.172;2024-01-30T08:10:19;8.20;;;7.10;;
757;SDS011;363;48.764;9.172;2024-01-30T08:12:45;10.23;;;8.38;;
757;SDS011;363;48.764;9.172;2024-01-30T08:15:11;11.30;;;8.07;;
757;SDS011;363;48.764;9.172;2024-01-30T08:17:40;8.48;;;6.78;;
757;SDS011;363;48.764;9.172;2024-01-30T08:20:05;9.20;;;7.20;;
757;SDS011;363;48.764;9.172;2024-01-30T08:22:33;8.27;;;6.97;;
757;SDS011;363;48.764;9.172;2024-01-30T08:24:58;8.60;;;7.27;;
757;SDS011;363;48.764;9.172;2024-01-30T08:27:24;9.50;;;8.20;;
757;SDS011;363;48.764;9.172;2024-01-30T08:29:49;9.20;;;8.17;;
757;SDS011;363;48.764;9.172;2024-01-30T08:32:15;9.10;;;8.03;;
757;SDS011;363;48.764;9.172;2024-01-30T08:34:41;8.47;;;7.53;;
757;SDS011;363;48.764;9.172;2024-01-30T08:37:06;9.47;;;8.47;;
757;SDS011;363;48.764;9.172;2024-01-30T08:39:32;9.40;;;7.87;;
757;SDS011;363;48.764;9.172;2024-01-30T08:41:58;10.30;;;7.90;;
757;SDS011;363;48.764;9.172;2024-01-30T08:44:23;8.67;;;7.77;;
757;SDS011;363;48.764;9.172;2024-01-30T08:46:48;9.10;;;7.37;;
757;SDS011;363;48.764;9.172;2024-01-30T08:49:16;9.88;;;8.70;;
757;SDS011;363;48.764;9.172;2024-01-30T08:51:41;8.85;;;8.05;;
757;SDS011;363;48.764;9.172;2024-01-30T08:54:07;9.27;;;8.30;;
757;SDS011;363;48.764;9.172;2024-01-30T08:56:33;10.60;;;8.40;;
757;SDS011;363;48.764;9.172;2024-01-30T08:58:58;14.00;;;9.07;;
757;SDS011;363;48.764;9.172;2024-01-30T09:01:24;12.70;;;8.07;;
757;SDS011;363;48.764;9.172;2024-01-30T09:03:50;8.85;;;7.55;;
757;SDS011;363;48.764;9.172;2024-01-30T09:06:16;10.20;;;8.60;;
757;SDS011;363;48.764;9.172;2024-01-30T09:08:41;9.53;;;8.17;;
757;SDS011;363;48.764;9.172;2024-01-30T09:11:13;11.50;;;10.30;;
757;SDS011;363;48.764;9.172;2024-01-30T09:13:40;11.40;;;9.75;;
757;SDS011;363;48.764;9.172;2024-01-30T09:16:06;16.58;;;12.55;;
757;SDS011;363;48.764;9.172;2024-01-30T09:18:32;10.63;;;9.52;;
757;SDS011;363;48.764;9.172;2024-01-30T09:20:58;13.20;;;9.40;;
757;SDS011;363;48.764;9.172;2024-01-30T09:23:24;10.32;;;8.63;;
757;SDS011;363;48.764;9.172;2024-01-30T09:25:50;10.17;;;9.10;;
757;SDS011;363;48.764;9.172;2024-01-30T09:28:16;10.73;;;9.60;;
757;SDS011;363;48.764;9.172;2024-01-30T09:30:42;11.48;;;10.00;;
757;SDS011;363;48.764;9.172;2024-01-30T09:33:08;10.83;;;9.40;;
757;SDS011;363;48.764;9.172;2024-01-30T09:35:33;12.57;;;10.97;;
757;SDS011;363;48.764;9.172;2024-01-30T09:37:59;12.30;;;10.20;;
757;SDS011;363;48.764;9.172;2024-01-30T09:40:25;13.87;;;11.37;;
757;SDS011;363;48.764;9.172;2024-01-30T09:42:50;19.00;;;10.30;;
757;SDS011;363;48.764;9.172;2024-01-30T09:45:19;9.83;;;8.73;;
757;SDS011;363;48.764;9.172;2024-01-30T09:47:49;10.90;;;9.77;;
757;SDS011;363;48.764;9.172;2024-01-30T09:50:14;11.40;;;10.30;;
757;SDS011;363;48.764;9.172;2024-01-30T09:52:40;11.77;;;9.45;;
757;SDS011;363;48.764;9.172;2024-01-30T09:55:25;11.30;;;10.20;;
757;SDS011;363;48.764;9.172;2024-01-30T09:57:51;10.65;;;9.65;;
757;SDS011;363;48.764;9.172;2024-01-30T10:00:17;13.63;;;9.70;;
757;SDS011;363;48.764;9.172;2024-01-30T10:05:29;11.23;;;9.55;;
757;SDS011;363;48.764;9.172;2024-01-30T10:07:58;13.98;;;10.95;;
757;SDS011;363;48.764;9.172;2024-01-30T10:10:24;11.30;;;9.90;;
757;SDS011;363;48.764;9.172;2024-01-30T10:12:50;13.00;;;10.50;;
757;SDS011;363;48.764;9.172;2024-01-30T10:15:15;10.70;;;9.70;;
757;SDS011;363;48.764;9.172;2024-01-30T10:17:44;10.90;;;9.90;;
757;SDS011;363;48.764;9.172;2024-01-30T10:20:10;11.27;;;10.18;;
757;SDS011;363;48.764;9.172;2024-01-30T10:22:36;14.05;;;10.77;;
757;SDS011;363;48.764;9.172;2024-01-30T10:25:02;11.63;;;10.53;;
757;SDS011;363;48.764;9.172;2024-01-30T10:27:28;14.13;;;10.20;;
757;SDS011;363;48.764;9.172;2024-01-30T10:29:54;11.85;;;10.65;;
757;SDS011;363;48.764;9.172;2024-01-30T10:32:21;12.73;;;11.52;;
757;SDS011;363;48.764;9.172;2024-01-30T10:34:47;13.80;;;11.10;;
757;SDS011;363;48.764;9.172;2024-01-30T10:37:14;14.17;;;10.83;;
757;SDS011;363;48.764;9.172;2024-01-30T10:39:42;17.48;;;11.40;;
757;SDS011;363;48.764;9.172;2024-01-30T10:42:13;13.90;;;11.10;;
757;SDS011;363;48.764;9.172;2024-01-30T10:45:02;12.50;;;11.20;;
757;SDS011;363;48.764;9.172;2024-01-30T10:47:34;11.82;;;10.63;;
757;SDS011;363;48.764;9.172;2024-01-30T10:50:01;11.82;;;10.52;;
757;SDS011;363;48.764;9.172;2024-01-30T10:52:28;11.43;;;10.35;;
757;SDS011;363;48.764;9.172;2024-01-30T10:54:55;12.40;;;11.23;;
757;SDS011;363;48.764;9.172;2024-01-30T10:57:24;12.38;;;11.05;;
757;SDS011;363;48.764;9.172;2024-01-30T10:59:53;12.98;;;11.68;;
757;SDS011;363;48.764;9.172;2024-01-30T11:02:23;16.35;;;10.98;;
757;SDS011;363;48.764;9.172;2024-01-30T11:04:49;17.52;;;15.55;;
757;SDS011;363;48.764;9.172;2024-01-30T11:07:18;12.40;;;11.07;;
757;SDS011;363;48.764;9.172;2024-01-30T11:09:52;13.13;;;11.82;;
757;SDS011;363;48.764;9.172;2024-01-30T11:12:30;14.95;;;11.30;;
757;SDS011;363;48.764;9.172;2024-01-30T11:15:07;14.68;;;12.05;;
757;SDS011;363;48.764;9.172;2024-01-30T11:17:49;13.68;;;12.25;;
757;SDS011;363;48.764;9.172;2024-01-30T11:20:29;15.15;;;11.80;;
757;SDS011;363;48.764;9.172;2024-01-30T11:22:56;15.27;;;11.90;;
757;SDS011;363;48.764;9.172;2024-01-30T11:25:23;12.43;;;11.10;;
757;SDS011;363;48.764;9.172;2024-01-30T11:27:51;15.68;;;10.70;;
757;SDS011;363;48.764;9.172;2024-01-30T11:30:22;12.48;;;11.15;;
757;SDS011;363;48.764;9.172;2024-01-30T11:33:01;14.18;;;11.30;;
757;SDS011;363;48.764;9.172;2024-01-30T11:38:00;14.40;;;11.57;;
757;SDS011;363;48.764;9.172;2024-01-30T11:40:30;14.68;;;13.05;;
757;SDS011;363;48.764;9.172;2024-01-30T11:42:58;18.08;;;16.17;;
757;SDS011;363;48.764;9.172;2024-01-30T11:45:25;15.80;;;14.18;;
757;SDS011;363;48.764;9.172;2024-01-30T11:47:53;13.43;;;12.02;;
757;SDS011;363;48.764;9.172;2024-01-30T11:50:19;13.80;;;12.32;;
757;SDS011;363;48.764;9.172;2024-01-30T11:52:45;12.00;;;10.83;;
757;SDS011;363;48.764;9.172;2024-01-30T11:55:12;12.73;;;11.20;;
757;SDS011;363;48.764;9.172;2024-01-30T11:57:39;12.55;;;10.63;;
757;SDS011;363;48.764;9.172;2024-01-30T12:00:05;13.83;;;11.60;;
757;SDS011;363;48.764;9.172;2024-01-30T12:02:39;12.63;;;11.32;;
757;SDS011;363;48.764;9.172;2024-01-30T12:05:25;15.60;;;12.93;;
757;SDS011;363;48.764;9.172;2024-01-30T12:07:51;15.00;;;12.93;;
757;SDS011;363;48.764;9.172;2024-01-30T12:10:17;21.07;;;11.53;;
757;SDS011;363;48.764;9.172;2024-01-30T12:12:47;13.68;;;10.68;;
757;SDS011;363;48.764;9.172;2024-01-30T12:15:15;13.18;;;11.68;;
757;SDS011;363;48.764;9.172;2024-01-30T12:17:41;15.25;;;12.63;;
757;SDS011;363;48.764;9.172;2024-01-30T12:20:11;13.73;;;12.15;;
757;SDS011;363;48.764;9.172;2024-01-30T12:22:38;15.82;;;12.18;;
757;SDS011;363;48.764;9.172;2024-01-30T12:25:08;13.35;;;11.50;;
757;SDS011;363;48.764;9.172;2024-01-30T12:27:34;15.75;;;11.05;;
757;SDS011;363;48.764;9.172;2024-01-30T12:30:00;17.83;;;12.00;;
757;SDS011;363;48.764;9.172;2024-01-30T12:32:26;11.80;;;10.70;;
757;SDS011;363;48.764;9.172;2024-01-30T12:34:55;13.35;;;11.65;;
757;SDS011;363;48.764;9.172;2024-01-30T12:37:22;11.98;;;10.68;;
757;SDS011;363;48.764;9.172;2024-01-30T12:39:53;13.10;;;11.27;;
757;SDS011;363;48.764;9.172;2024-01-30T12:42:19;13.70;;;10.23;;
757;SDS011;363;48.764;9.172;2024-01-30T12:44:46;13.52;;;12.23;;
757;SDS011;363;48.764;9.172;2024-01-30T12:47:12;13.30;;;10.77;;
757;SDS011;363;48.764;9.172;2024-01-30T12:49:37;15.43;;;11.17;;
757;SDS011;363;48.764;9.172;2024-01-30T12:52:03;16.30;;;11.33;;
757;SDS011;363;48.764;9.172;2024-01-30T12:54:28;14.93;;;10.00;;
757;SDS011;363;48.764;9.172;2024-01-30T12:56:55;11.50;;;10.30;;
757;SDS011;363;48.764;9.172;2024-01-30T12:59:21;12.38;;;10.45;;
757;SDS011;363;48.764;9.172;2024-01-30T13:01:46;13.60;;;9.80;;
757;SDS011;363;48.764;9.172;2024-01-30T13:04:12;14.70;;;10.50;;
757;SDS011;363;48.764;9.172;2024-01-30T13:06:38;12.10;;;10.03;;
757;SDS011;363;48.764;9.172;2024-01-30T13:09:03;16.60;;;10.10;;
757;SDS011;363;48.764;9.172;2024-01-30T13:11:30;13.05;;;10.30;;
757;SDS011;363;48.764;9.172;2024-01-30T13:13:56;11.07;;;10.07;;
757;SDS011;363;48.764;9.172;2024-01-30T13:16:22;10.37;;;9.37;;
757;SDS011;363;48.764;9.172;2024-01-30T13:18:48;12.70;;;10.37;;
757;SDS011;363;48.764;9.172;2024-01-30T13:21:14;15.67;;;10.40;;
757;SDS011;363;48.764;9.172;2024-01-30T13:23:39;10.60;;;9.43;;
757;SDS011;363;48.764;9.172;2024-01-30T13:26:05;10.97;;;9.87;;
757;SDS011;363;48.764;9.172;2024-01-30T13:28:31;10.00;;;9.05;;
757;SDS011;363;48.764;9.172;2024-01-30T13:30:58;11.25;;;10.15;;
757;SDS011;363;48.764;9.172;2024-01-30T13:33:24;10.17;;;9.00;;
757;SDS011;363;48.764;9.172;2024-01-30T13:35:50;12.20;;;10.40;;
757;SDS011;363;48.764;9.172;2024-01-30T13:38:15;15.20;;;9.90;;
757;SDS011;363;48.764;9.172;2024-01-30T13:40:41;11.70;;;9.97;;
757;SDS011;363;48.764;9.172;2024-01-30T13:43:06;11.20;;;9.90;;
757;SDS011;363;48.764;9.172;2024-01-30T13:45:32;10.87;;;9.40;;
757;SDS011;363;48.764;9.172;2024-01-30T13:47:57;14.57;;;10.80;;
757;SDS011;363;48.764;9.172;2024-01-30T13:50:24;11.07;;;9.98;;
757;SDS011;363;48.764;9.172;2024-01-30T13:52:49;11.37;;;9.00;;
757;SDS011;363;48.764;9.172;2024-01-30T13:55:15;10.13;;;9.13;;
757;SDS011;363;48.764;9.172;2024-01-30T13:57:40;13.00;;;10.20;;
757;SDS011;363;48.764;9.172;2024-01-30T14:00:06;11.40;;;9.13;;
757;SDS011;363;48.764;9.172;2024-01-30T14:02:33;14.35;;;10.07;;
757;SDS011;363;48.764;9.172;2024-01-30T14:04:58;13.63;;;9.07;;
757;SDS011;363;48.764;9.172;2024-01-30T14:07:24;16.23;;;11.00;;
757;SDS011;363;48.764;9.172;2024-01-30T14:09:49;16.20;;;10.17;;
757;SDS011;363;48.764;9.172;2024-01-30T14:12:15;18.27;;;11.37;;
757;SDS011;363;48.764;9.172;2024-01-30T14:14:40;10.90;;;9.80;;
757;SDS011;363;48.764;9.172;2024-01-30T14:17:06;11.10;;;10.00;;
757;SDS011;363;48.764;9.172;2024-01-30T14:19:32;16.13;;;11.60;;
757;SDS011;363;48.764;9.172;2024-01-30T14:21:59;11.95;;;9.10;;
757;SDS011;363;48.764;9.172;2024-01-30T14:24:24;14.13;;;12.63;;
757;SDS011;363;48.764;9.172;2024-01-30T14:26:52;17.52;;;13.43;;
757;SDS011;363;48.764;9.172;2024-01-30T14:29:17;20.33;;;11.20;;
757;SDS011;363;48.764;9.172;2024-01-30T14:31:43;11.90;;;9.07;;
757;SDS011;363;48.764;9.172;2024-01-30T14:34:08;10.83;;;9.67;;
757;SDS011;363;48.764;9.172;2024-01-30T14:36:36;11.68;;;10.50;;
757;SDS011;363;48.764;9.172;2024-01-30T14:39:02;12.13;;;10.30;;
757;SDS011;363;48.764;9.172;2024-01-30T14:41:28;14.05;;;10.63;;
757;SDS011;363;48.764;9.172;2024-01-30T14:43:54;14.13;;;10.40;;
757;SDS011;363;48.764;9.172;2024-01-30T14:46:20;16.73;;;11.00;;
757;SDS011;363;48.764;9.172;2024-01-30T14:48:46;15.95;;;11.88;;
757;SDS011;363;48.764;9.172;2024-01-30T14:51:12;13.32;;;10.40;;
757;SDS011;363;48.764;9.172;2024-01-30T14:53:38;15.35;;;10.52;;
757;SDS011;363;48.764;9.172;2024-01-30T14:56:04;11.13;;;10.03;;
757;SDS011;363;48.764;9.172;2024-01-30T14:58:30;11.93;;;9.68;;
757;SDS011;363;48.764;9.172;2024-01-30T15:00:55;15.87;;;12.40;;
757;SDS011;363;48.764;9.172;2024-01-30T15:03:21;16.40;;;12.63;;
757;SDS011;363;48.764;9.172;2024-01-30T15:05:46;15.80;;;11.20;;
757;SDS011;363;48.764;9.172;2024-01-30T15:08:12;17.90;;;11.53;;
757;SDS011;363;48.764;9.172;2024-01-30T15:10:38;15.70;;;11.77;;
757;SDS011;363;48.764;9.172;2024-01-30T15:13:03;14.23;;;10.90;;
757;SDS011;363;48.764;9.172;2024-01-30T15:15:29;13.37;;;10.63;;
757;SDS011;363;48.764;9.172;2024-01-30T15:17:55;14.20;;;11.05;;
757;SDS011;363;48.764;9.172;2024-01-30T15:20:21;16.77;;;11.50;;
757;SDS011;363;48.764;9.172;2024-01-30T15:22:47;16.07;;;12.87;;
757;SDS011;363;48.764;9.172;2024-01-30T15:25:13;13.95;;;11.95;;
757;SDS011;363;48.764;9.172;2024-01-30T15:27:54;13.25;;;11.52;;
757;SDS011;363;48.764;9.172;2024-01-30T15:30:20;16.77;;;11.90;;
757;SDS011;363;48.764;9.172;2024-01-30T15:32:46;14.50;;;12.10;;